Accueil
METAR-TAF:

METAR-TAF

Aéroports :

Base aérienne Volkel-Uden

Uden, Pays-Bas

latitude: 51-39N, longitude: 005-42E, altitude: 22 m

Observation

Le bulletin a été fait il y a 24 minutes, à 19:55 UTC
Vent 1 kt de sud-est
Température 16°C
Humidité 68%
Pression 1016 hPa
Visibilité 10 km ou plus
Ciel couvert à une hauteur de 29000 ft

METAR: EHVK 041955Z AUTO 14001KT 9999 OVC290 16/10 Q1016 BLU

Heure: 22:19 (20:19 UTC)

Prévision

Le bulletin a été fait il y a 1 heure et 25 minutes, à 18:54 UTC
Prévision valable du 04 à 17 UTC au 05 à 05 UTC
Vent 4 kt de sud
Visibilité 10 km ou plus
pas de nuages en-dessous de 1500 mètres et pas de cumulonimbus.

TAF: EHVK 041854Z 0417/0505 17004KT CAVOK

Observations et prévisions météorologiques de plus de 4000 aéroports (messages METAR et TAF).

Les stations disponibles sont représentées par des disques jaunes et rouges sur la carte.

Passer la souris dessus pour voir le nom de la station.

Cliquer dessus pour voir les observations et prévisions météorologiques.

Pour changer de carte: cliquez sur les boutons verts avec une croix noire pour zoomer, sur le bouton vert avec un tiret pour effectuer un zoom arrière, ou sur les flèches vertes pour les cartes adjacentes.


METAR-TAF: